createdAt,value
2018-06-18T00:01:47.767Z,78.52
2018-06-18T00:04:14.663Z,78.68
2018-06-18T00:06:41.595Z,79.45
2018-06-18T00:09:09.831Z,79.58
2018-06-18T00:11:36.723Z,79.27
2018-06-18T00:14:03.724Z,79.47
2018-06-18T00:16:30.638Z,79.25
2018-06-18T00:18:57.524Z,79.52
2018-06-18T00:21:24.418Z,79.73
2018-06-18T00:23:51.340Z,80.26
2018-06-18T00:26:18.447Z,80.05
2018-06-18T00:28:45.391Z,80.03
2018-06-18T00:31:12.287Z,79.61
2018-06-18T00:33:39.207Z,80.34
2018-06-18T00:36:06.131Z,80.60
2018-06-18T00:38:33.031Z,80.48
2018-06-18T00:40:59.938Z,81.18
2018-06-18T00:43:26.918Z,81.10
2018-06-18T00:45:53.846Z,80.98
2018-06-18T00:48:20.768Z,81.18
2018-06-18T00:50:47.759Z,81.33
2018-06-18T00:53:14.715Z,81.51
2018-06-18T00:55:53.198Z,82.00
2018-06-18T00:58:20.123Z,81.92
2018-06-18T01:00:47.650Z,81.21
2018-06-18T01:03:14.705Z,81.34
2018-06-18T01:05:41.650Z,81.77
2018-06-18T01:08:08.602Z,81.87
2018-06-18T01:10:35.498Z,82.46
2018-06-18T01:13:02.434Z,82.65
2018-06-18T01:15:29.339Z,82.28
2018-06-18T01:17:56.255Z,82.82
2018-06-18T01:20:23.299Z,82.84
2018-06-18T01:22:59.391Z,82.84
2018-06-18T01:25:26.289Z,82.87
2018-06-18T01:27:53.260Z,82.61
2018-06-18T01:30:20.203Z,82.73
2018-06-18T01:32:47.135Z,82.73
2018-06-18T01:35:14.040Z,82.90
2018-06-18T01:37:41.023Z,82.19
2018-06-18T01:40:07.907Z,82.78
2018-06-18T01:42:35.150Z,83.07
2018-06-18T01:45:02.615Z,83.05
2018-06-18T01:47:29.543Z,83.02
2018-06-18T01:49:56.439Z,82.98
2018-06-18T01:52:23.343Z,83.10
2018-06-18T01:54:50.307Z,83.69
2018-06-18T01:57:17.221Z,83.68
2018-06-18T01:59:44.158Z,83.58
2018-06-18T02:02:11.035Z,83.79
2018-06-18T02:04:37.952Z,83.99
2018-06-18T02:07:04.862Z,83.66
2018-06-18T02:09:31.758Z,83.71
2018-06-18T02:11:58.736Z,83.20
2018-06-18T02:14:25.647Z,83.37
2018-06-18T02:16:52.555Z,83.11
2018-06-18T02:19:19.544Z,83.65
2018-06-18T02:21:46.548Z,83.31
2018-06-18T02:24:13.479Z,83.33
2018-06-18T02:26:40.423Z,83.44
2018-06-18T02:29:13.276Z,83.18
2018-06-18T02:31:46.796Z,83.53
2018-06-18T02:35:19.875Z,83.73
2018-06-18T02:37:52.499Z,83.76
2018-06-18T02:40:25.278Z,83.57
2018-06-18T02:42:52.188Z,83.60
2018-06-18T02:45:19.120Z,83.51
2018-06-18T02:47:46.025Z,84.06
2018-06-18T02:50:13.023Z,83.87
2018-06-18T02:52:39.987Z,84.10
2018-06-18T02:55:06.954Z,83.95
2018-06-18T02:57:34.146Z,83.91
2018-06-18T03:00:01.046Z,83.67
2018-06-18T03:02:27.967Z,83.35
2018-06-18T03:04:54.912Z,83.25
2018-06-18T03:07:21.807Z,83.80
2018-06-18T03:09:48.744Z,83.24
2018-06-18T03:12:15.655Z,83.09
2018-06-18T03:14:42.602Z,83.23
2018-06-18T03:17:09.499Z,82.83
2018-06-18T03:19:42.372Z,83.39
2018-06-18T03:22:15.054Z,82.85
2018-06-18T03:24:47.851Z,82.67
2018-06-18T03:27:20.511Z,82.47
2018-06-18T03:29:47.422Z,82.72
2018-06-18T03:32:16.267Z,82.82
2018-06-18T03:34:43.270Z,82.54
2018-06-18T03:37:12.496Z,82.56
2018-06-18T03:39:39.381Z,82.91
2018-06-18T03:42:06.709Z,82.58
2018-06-18T03:44:37.218Z,82.76
2018-06-18T03:47:13.139Z,82.34
2018-06-18T03:49:40.295Z,82.28
2018-06-18T03:52:07.211Z,82.38
2018-06-18T03:54:34.114Z,82.51
2018-06-18T03:57:01.144Z,82.12
2018-06-18T03:59:28.130Z,82.03
2018-06-18T04:02:03.427Z,81.75
2018-06-18T04:04:47.211Z,81.82
2018-06-18T04:07:21.687Z,81.78
2018-06-18T04:09:54.267Z,81.81
2018-06-18T04:12:21.260Z,81.78
2018-06-18T04:14:48.340Z,81.07
2018-06-18T04:17:15.254Z,81.24
2018-06-18T04:19:42.143Z,81.12
2018-06-18T04:22:09.159Z,81.27
2018-06-18T04:24:36.138Z,80.68
2018-06-18T04:27:03.160Z,80.61
2018-06-18T04:29:30.306Z,80.92
2018-06-18T04:31:57.203Z,80.20
2018-06-18T04:34:34.475Z,80.71
2018-06-18T04:37:01.407Z,80.35
2018-06-18T04:39:28.664Z,79.71
2018-06-18T04:42:01.239Z,79.93
2018-06-18T04:44:34.012Z,79.29
2018-06-18T04:47:06.753Z,79.27
2018-06-18T04:49:39.337Z,78.76
2018-06-18T04:52:06.262Z,79.00
2018-06-18T04:54:33.166Z,79.09
2018-06-18T04:57:00.838Z,78.45
2018-06-18T04:59:27.738Z,78.57
2018-06-18T05:01:54.682Z,78.50
2018-06-18T05:04:21.555Z,77.95
2018-06-18T05:06:48.494Z,77.52
2018-06-18T05:09:41.439Z,77.88
2018-06-18T05:12:08.355Z,77.54
2018-06-18T05:14:35.238Z,77.55
2018-06-18T05:17:02.367Z,77.00
2018-06-18T05:19:29.339Z,76.76
2018-06-18T05:21:56.239Z,76.66
2018-06-18T05:24:23.131Z,77.34
2018-06-18T05:26:51.886Z,77.14
2018-06-18T05:29:20.246Z,76.98
2018-06-18T05:31:47.262Z,76.75
2018-06-18T05:34:16.787Z,76.90
2018-06-18T05:36:43.754Z,77.14
2018-06-18T05:39:10.674Z,77.19
2018-06-18T05:41:37.610Z,77.70
2018-06-18T05:44:04.499Z,77.91
2018-06-18T05:46:31.411Z,77.51
2018-06-18T05:48:58.335Z,77.25
2018-06-18T05:51:25.243Z,76.34
2018-06-18T05:53:52.159Z,75.37
2018-06-18T05:56:19.087Z,74.20
2018-06-18T05:58:45.998Z,74.21
2018-06-18T06:01:13.143Z,73.37
2018-06-18T06:03:40.134Z,72.88
2018-06-18T06:06:07.040Z,72.80
2018-06-18T06:08:34.013Z,72.42
2018-06-18T06:11:00.943Z,72.14
2018-06-18T06:13:27.930Z,71.27
2018-06-18T06:15:54.827Z,72.06
2018-06-18T06:18:21.740Z,71.83
2018-06-18T06:20:54.987Z,71.36
2018-06-18T06:23:21.919Z,70.76
2018-06-18T06:25:49.376Z,69.34
2018-06-18T06:28:16.307Z,68.82
2018-06-18T06:30:43.215Z,69.11
2018-06-18T06:33:10.127Z,68.57
2018-06-18T06:35:38.836Z,67.67
2018-06-18T06:38:05.770Z,67.76
2018-06-18T06:40:32.732Z,66.87
2018-06-18T06:42:59.776Z,66.79
2018-06-18T06:45:26.670Z,67.14
2018-06-18T06:47:53.600Z,66.39
2018-06-18T06:50:20.503Z,65.24
2018-06-18T06:52:47.411Z,65.34
2018-06-18T06:55:14.298Z,65.39
2018-06-18T06:57:41.213Z,64.94
2018-06-18T07:00:08.100Z,65.23
2018-06-18T07:02:34.987Z,65.03
2018-06-18T07:05:02.088Z,64.79
2018-06-18T07:07:28.994Z,63.81
2018-06-18T07:09:55.936Z,63.53
2018-06-18T07:12:22.855Z,63.28
2018-06-18T07:14:49.756Z,63.16
2018-06-18T07:17:16.674Z,63.08
2018-06-18T07:19:43.654Z,63.81
2018-06-18T07:22:10.551Z,64.00
2018-06-18T07:24:37.448Z,63.84
2018-06-18T07:27:04.438Z,63.63
2018-06-18T07:29:31.371Z,63.34
2018-06-18T07:31:58.556Z,62.69
2018-06-18T07:34:25.443Z,62.72
2018-06-18T07:36:52.658Z,62.74
2018-06-18T07:39:19.562Z,63.50
2018-06-18T07:41:46.467Z,63.16
2018-06-18T07:44:13.447Z,62.18
2018-06-18T07:46:40.347Z,62.23
2018-06-18T07:49:07.259Z,61.79
2018-06-18T07:51:34.217Z,61.45
2018-06-18T07:54:01.088Z,60.78
2018-06-18T07:56:28.018Z,61.53
2018-06-18T07:58:54.926Z,60.43
2018-06-18T08:01:21.855Z,60.32
2018-06-18T08:03:48.766Z,61.12
2018-06-18T08:06:15.651Z,59.95
2018-06-18T08:08:42.639Z,60.34
2018-06-18T08:11:09.518Z,58.81
2018-06-18T08:13:36.419Z,58.46
2018-06-18T08:16:03.305Z,57.84
2018-06-18T08:18:30.224Z,57.54
2018-06-18T08:20:57.127Z,57.05
2018-06-18T08:23:24.375Z,56.38
2018-06-18T08:25:51.363Z,56.71
2018-06-18T08:28:18.307Z,54.53
2018-06-18T08:30:45.191Z,55.48
2018-06-18T08:33:12.083Z,54.78
2018-06-18T08:35:38.971Z,54.34
2018-06-18T08:38:05.879Z,53.80
2018-06-18T08:40:32.817Z,54.34
2018-06-18T08:42:59.872Z,54.51
2018-06-18T08:45:26.775Z,54.27
2018-06-18T08:47:53.722Z,54.54
2018-06-18T08:50:26.323Z,54.76
2018-06-18T08:52:58.940Z,54.21
2018-06-18T08:57:33.123Z,53.65
2018-06-18T09:00:05.823Z,53.82
2018-06-18T09:02:33.142Z,52.75
2018-06-18T09:05:05.880Z,52.51
2018-06-18T09:07:37.414Z,52.16
2018-06-18T09:10:04.708Z,52.53
2018-06-18T09:12:31.600Z,51.60
2018-06-18T09:14:58.483Z,52.39
2018-06-18T09:17:25.401Z,52.20
2018-06-18T09:19:52.296Z,53.35
2018-06-18T09:22:19.186Z,53.41
2018-06-18T09:24:46.071Z,52.98
2018-06-18T09:27:14.027Z,52.87
2018-06-18T09:29:46.547Z,51.99
2018-06-18T09:32:13.902Z,51.22
2018-06-18T09:34:41.171Z,51.73
2018-06-18T09:37:08.325Z,52.18
2018-06-18T09:39:35.275Z,52.89
2018-06-18T09:42:02.845Z,53.72
2018-06-18T09:44:29.747Z,53.83
2018-06-18T09:46:57.259Z,53.58
2018-06-18T09:51:31.516Z,52.67
2018-06-18T09:54:04.032Z,52.72
2018-06-18T09:56:36.663Z,52.70
2018-06-18T09:59:09.514Z,52.51
2018-06-18T10:01:36.570Z,51.85
2018-06-18T10:04:04.195Z,51.88
2018-06-18T10:06:34.198Z,52.14
2018-06-18T10:09:05.135Z,52.45
2018-06-18T10:11:32.544Z,50.48
2018-06-18T10:13:59.456Z,50.70
2018-06-18T10:16:26.400Z,50.02
2018-06-18T10:18:53.768Z,50.30
2018-06-18T10:21:20.659Z,49.92
2018-06-18T10:23:47.594Z,50.36
2018-06-18T10:26:14.488Z,49.36
2018-06-18T10:28:41.503Z,49.95
2018-06-18T10:31:08.516Z,49.66
2018-06-18T10:33:41.256Z,50.28
2018-06-18T10:38:21.478Z,50.94
2018-06-18T10:40:54.194Z,50.93
2018-06-18T10:43:24.275Z,51.77
2018-06-18T10:45:51.286Z,52.90
2018-06-18T10:48:18.383Z,52.88
2018-06-18T10:50:45.298Z,52.55
2018-06-18T10:53:12.219Z,52.64
2018-06-18T10:55:39.123Z,52.86
2018-06-18T10:58:06.052Z,53.82
2018-06-18T11:00:32.939Z,54.69
2018-06-18T11:02:59.865Z,54.71
2018-06-18T11:05:32.631Z,55.71
2018-06-18T11:07:59.507Z,55.50
2018-06-18T11:10:26.397Z,55.74
2018-06-18T11:12:53.654Z,55.84
2018-06-18T11:15:20.595Z,55.79
2018-06-18T11:17:53.156Z,55.72
2018-06-18T11:20:25.692Z,56.38
2018-06-18T11:22:58.294Z,56.06
2018-06-18T11:25:30.735Z,56.56
2018-06-18T11:27:57.679Z,56.52
2018-06-18T11:30:24.579Z,56.47
2018-06-18T11:32:51.498Z,56.01
2018-06-18T11:35:18.391Z,56.69
2018-06-18T11:37:45.281Z,56.37
2018-06-18T11:40:12.192Z,55.63
2018-06-18T11:42:39.114Z,56.17
2018-06-18T11:45:06.044Z,56.65
2018-06-18T11:47:33.013Z,56.35
2018-06-18T11:50:00.436Z,55.83
2018-06-18T11:52:27.394Z,56.23
2018-06-18T11:54:54.375Z,55.50
2018-06-18T11:57:21.294Z,56.86
2018-06-18T11:59:53.983Z,56.60
2018-06-18T12:02:26.503Z,56.13
2018-06-18T12:04:59.287Z,55.50
2018-06-18T12:07:31.814Z,56.33
2018-06-18T12:09:58.748Z,57.26
2018-06-18T12:12:25.638Z,56.77
2018-06-18T12:14:52.552Z,57.90
2018-06-18T12:17:19.447Z,57.63
2018-06-18T12:19:46.331Z,57.95
2018-06-18T12:22:13.299Z,57.99
2018-06-18T12:24:40.194Z,57.67
2018-06-18T12:27:08.403Z,58.43
2018-06-18T12:29:35.294Z,57.96
2018-06-18T12:32:02.231Z,58.88
2018-06-18T12:34:29.163Z,59.42
2018-06-18T12:36:56.113Z,59.77
2018-06-18T12:39:23.016Z,60.19
2018-06-18T12:41:54.499Z,59.72
2018-06-18T12:44:21.382Z,59.83
2018-06-18T12:46:54.218Z,59.94
2018-06-18T12:49:27.790Z,59.75
2018-06-18T12:52:00.514Z,60.35
2018-06-18T12:54:33.227Z,59.29
2018-06-18T12:57:02.876Z,58.96
2018-06-18T12:59:29.792Z,56.95
2018-06-18T13:02:01.787Z,56.99
2018-06-18T13:04:30.592Z,55.91
2018-06-18T13:06:57.571Z,55.70
2018-06-18T13:09:24.473Z,54.23
2018-06-18T13:11:51.708Z,53.34
2018-06-18T13:14:18.599Z,53.57
2018-06-18T13:16:45.538Z,52.75
2018-06-18T13:19:12.482Z,52.60
2018-06-18T13:21:39.415Z,53.33
2018-06-18T13:24:06.330Z,52.96
2018-06-18T13:26:33.267Z,53.96
2018-06-18T13:29:00.181Z,52.70
2018-06-18T13:31:27.090Z,52.94
2018-06-18T13:33:53.983Z,52.30
2018-06-18T13:36:20.916Z,52.57
2018-06-18T13:38:53.631Z,52.53
2018-06-18T13:41:26.396Z,52.51
2018-06-18T13:43:59.114Z,52.82
2018-06-18T13:46:31.853Z,53.22
2018-06-18T13:48:58.747Z,54.26
2018-06-18T13:51:26.597Z,55.71
2018-06-18T13:53:53.699Z,55.86
2018-06-18T13:56:20.630Z,55.15
2018-06-18T13:58:47.577Z,55.40
2018-06-18T14:01:14.495Z,54.21
2018-06-18T14:03:41.874Z,54.26
2018-06-18T14:06:08.975Z,55.12
2018-06-18T14:08:35.869Z,54.02
2018-06-18T14:11:02.798Z,54.40
2018-06-18T14:13:30.016Z,54.43
2018-06-18T14:15:57.896Z,53.62
2018-06-18T14:18:24.830Z,53.36
2018-06-18T14:20:51.670Z,53.85
2018-06-18T14:23:18.591Z,54.43
2018-06-18T14:25:45.495Z,54.09
2018-06-18T14:28:12.435Z,54.07
2018-06-18T14:30:44.936Z,54.10
2018-06-18T14:33:17.715Z,53.39
2018-06-18T14:35:50.335Z,53.01
2018-06-18T14:38:23.055Z,53.33
2018-06-18T14:40:49.986Z,52.43
2018-06-18T14:43:16.927Z,51.26
2018-06-18T14:45:43.851Z,51.14
2018-06-18T14:48:10.756Z,51.26
2018-06-18T14:50:37.642Z,51.04
2018-06-18T14:53:04.751Z,51.59
2018-06-18T14:55:31.647Z,50.55
2018-06-18T14:57:58.587Z,50.79
2018-06-18T15:00:28.228Z,51.29
2018-06-18T15:02:55.319Z,50.92
2018-06-18T15:05:23.553Z,50.63
2018-06-18T15:07:50.491Z,51.03
2018-06-18T15:10:17.416Z,50.39
2018-06-18T15:12:49.166Z,49.79
2018-06-18T15:15:21.988Z,49.83
2018-06-18T15:17:49.483Z,50.16
2018-06-18T15:20:16.463Z,50.06
2018-06-18T15:22:47.850Z,50.44
2018-06-18T15:25:15.139Z,50.66
2018-06-18T15:27:41.991Z,51.05
2018-06-18T15:30:09.006Z,50.80
2018-06-18T15:32:35.902Z,51.73
2018-06-18T15:35:02.826Z,51.97
2018-06-18T15:37:29.747Z,51.69
2018-06-18T15:39:56.648Z,52.32
2018-06-18T15:42:23.567Z,52.11
2018-06-18T15:44:50.470Z,51.59
2018-06-18T15:47:17.555Z,52.62
2018-06-18T15:49:44.467Z,51.80
2018-06-18T15:52:11.351Z,52.39
2018-06-18T15:54:38.272Z,52.75
2018-06-18T15:57:05.254Z,52.15
2018-06-18T15:59:32.107Z,52.43
2018-06-18T16:01:59.936Z,52.29
2018-06-18T16:04:26.811Z,52.44
2018-06-18T16:06:53.715Z,53.40
2018-06-18T16:09:20.659Z,53.74
2018-06-18T16:11:47.556Z,54.52
2018-06-18T16:14:14.464Z,56.04
2018-06-18T16:16:41.348Z,56.37
2018-06-18T16:19:08.299Z,56.43
2018-06-18T16:21:35.273Z,57.33
2018-06-18T16:24:02.183Z,57.37
2018-06-18T16:26:29.058Z,57.37
2018-06-18T16:28:56.130Z,57.39
2018-06-18T16:31:23.027Z,57.27
2018-06-18T16:33:50.917Z,57.26
2018-06-18T16:36:17.773Z,56.99
2018-06-18T16:38:44.718Z,56.67
2018-06-18T16:41:11.619Z,56.55
2018-06-18T16:43:38.580Z,56.93
2018-06-18T16:46:05.780Z,56.89
2018-06-18T16:48:32.696Z,57.01
2018-06-18T16:50:59.652Z,57.00
2018-06-18T16:53:26.671Z,57.22
2018-06-18T16:55:53.620Z,57.68
2018-06-18T16:58:20.540Z,56.39
2018-06-18T17:00:47.502Z,56.54
2018-06-18T17:03:14.395Z,57.04
2018-06-18T17:05:41.295Z,56.68
2018-06-18T17:08:08.187Z,56.83
2018-06-18T17:10:35.088Z,56.20
2018-06-18T17:13:01.978Z,56.17
2018-06-18T17:15:28.890Z,56.98
2018-06-18T17:17:55.831Z,57.00
2018-06-18T17:20:22.763Z,56.95
2018-06-18T17:22:50.311Z,57.20
2018-06-18T17:25:17.211Z,58.49
2018-06-18T17:27:44.088Z,59.24
2018-06-18T17:30:11.135Z,59.04
2018-06-18T17:32:38.114Z,59.86
2018-06-18T17:35:05.055Z,59.64
2018-06-18T17:37:31.963Z,60.14
2018-06-18T17:39:58.872Z,60.64
2018-06-18T17:42:25.759Z,60.22
2018-06-18T17:44:52.660Z,59.96
2018-06-18T17:47:19.550Z,61.19
2018-06-18T17:49:46.575Z,60.96
2018-06-18T17:52:13.531Z,60.25
2018-06-18T17:54:40.438Z,60.99
2018-06-18T17:57:07.576Z,61.40
2018-06-18T17:59:34.547Z,61.18
2018-06-18T18:02:01.429Z,62.30
2018-06-18T18:04:28.327Z,62.06
2018-06-18T18:06:55.258Z,62.45
2018-06-18T18:09:22.166Z,62.72
2018-06-18T18:11:49.063Z,62.79
2018-06-18T18:14:15.963Z,63.16
2018-06-18T18:16:42.910Z,62.53
2018-06-18T18:19:09.786Z,63.69
2018-06-18T18:21:36.723Z,63.95
2018-06-18T18:24:03.631Z,64.04
2018-06-18T18:26:30.622Z,63.69
2018-06-18T18:28:57.507Z,64.38
2018-06-18T18:31:24.626Z,65.07
2018-06-18T18:33:51.549Z,65.52
2018-06-18T18:36:18.424Z,65.37
2018-06-18T18:38:45.331Z,65.79
2018-06-18T18:41:12.239Z,65.32
2018-06-18T18:43:39.122Z,66.05
2018-06-18T18:46:06.059Z,67.41
2018-06-18T18:48:32.985Z,72.12
2018-06-18T18:50:59.893Z,74.02
2018-06-18T18:53:26.802Z,75.99
2018-06-18T18:56:06.180Z,75.70
2018-06-18T18:59:39.458Z,75.97
2018-06-18T19:02:06.735Z,76.71
2018-06-18T19:04:37.682Z,76.58
2018-06-18T19:07:05.451Z,77.44
2018-06-18T19:09:36.384Z,78.63
2018-06-18T19:12:03.612Z,78.80
2018-06-18T19:14:30.522Z,78.91
2018-06-18T19:16:57.428Z,78.43
2018-06-18T19:19:27.543Z,78.12
2018-06-18T19:21:54.455Z,78.71
2018-06-18T19:24:21.384Z,78.35
2018-06-18T19:26:48.515Z,78.09
2018-06-18T19:29:15.396Z,78.83
2018-06-18T19:31:42.535Z,79.12
2018-06-18T19:34:14.046Z,78.91
2018-06-18T19:36:43.746Z,79.45
2018-06-18T19:39:11.979Z,79.67
2018-06-18T19:41:39.116Z,79.93
2018-06-18T19:44:06.011Z,79.72
2018-06-18T19:46:37.085Z,80.12
2018-06-18T19:49:08.287Z,80.24
2018-06-18T19:51:35.271Z,80.86
2018-06-18T19:54:02.165Z,80.88
2018-06-18T19:56:29.126Z,81.09
2018-06-18T19:58:55.969Z,81.99
2018-06-18T20:01:22.919Z,81.41
2018-06-18T20:03:49.815Z,81.86
2018-06-18T20:06:16.739Z,81.66
2018-06-18T20:08:43.635Z,82.06
2018-06-18T20:11:10.539Z,82.37
2018-06-18T20:13:37.444Z,82.02
2018-06-18T20:16:04.326Z,82.89
2018-06-18T20:18:31.248Z,82.38
2018-06-18T20:20:58.162Z,82.36
2018-06-18T20:23:26.012Z,82.57
2018-06-18T20:26:03.410Z,82.21
2018-06-18T20:28:30.329Z,82.79
2018-06-18T20:30:57.486Z,82.76
2018-06-18T20:33:24.431Z,82.86
2018-06-18T20:35:56.846Z,83.08
2018-06-18T20:38:23.747Z,82.87
2018-06-18T20:40:50.687Z,83.54
2018-06-18T20:43:18.219Z,83.90
2018-06-18T20:45:45.144Z,84.05
2018-06-18T20:48:12.167Z,83.84
2018-06-18T20:50:39.078Z,83.89
2018-06-18T20:53:05.999Z,83.96
2018-06-18T20:55:32.891Z,83.55
2018-06-18T20:57:59.805Z,83.67
2018-06-18T21:00:26.738Z,84.00
2018-06-18T21:02:53.739Z,83.95
2018-06-18T21:05:20.835Z,84.02
2018-06-18T21:07:47.801Z,84.08
2018-06-18T21:10:14.662Z,84.27
2018-06-18T21:12:41.730Z,83.25
2018-06-18T21:15:08.746Z,83.55
2018-06-18T21:17:35.707Z,83.82
2018-06-18T21:20:02.644Z,83.51
2018-06-18T21:22:29.791Z,83.57
2018-06-18T21:24:56.715Z,82.98
2018-06-18T21:27:23.600Z,82.56
2018-06-18T21:29:50.803Z,83.19
2018-06-18T21:32:17.694Z,82.47
2018-06-18T21:34:44.603Z,82.90
2018-06-18T21:37:11.503Z,82.79
2018-06-18T21:39:38.393Z,82.94
2018-06-18T21:42:05.375Z,82.54
2018-06-18T21:44:34.799Z,82.61
2018-06-18T21:47:01.715Z,82.45
2018-06-18T21:49:28.623Z,82.57
2018-06-18T21:51:55.601Z,82.57
2018-06-18T21:54:22.526Z,82.49
2018-06-18T21:56:49.408Z,82.61
2018-06-18T21:59:16.445Z,82.01
2018-06-18T22:01:44.723Z,82.39
2018-06-18T22:04:12.159Z,82.26
2018-06-18T22:06:39.059Z,82.27
2018-06-18T22:09:15.179Z,82.26
2018-06-18T22:11:43.783Z,81.90
2018-06-18T22:14:10.803Z,82.00
2018-06-18T22:16:39.416Z,82.50
2018-06-18T22:19:06.544Z,81.82
2018-06-18T22:21:33.475Z,82.22
2018-06-18T22:24:00.555Z,81.97
2018-06-18T22:26:27.451Z,81.61
2018-06-18T22:28:54.363Z,81.33
2018-06-18T22:31:21.299Z,81.89
2018-06-18T22:33:48.243Z,81.84
2018-06-18T22:36:15.286Z,81.45
2018-06-18T22:38:42.315Z,81.65
2018-06-18T22:41:09.191Z,81.61
2018-06-18T22:43:36.180Z,81.04
2018-06-18T22:46:03.074Z,81.04
2018-06-18T22:48:30.020Z,81.77
2018-06-18T22:50:56.918Z,80.41
2018-06-18T22:53:23.819Z,80.67
2018-06-18T22:55:50.831Z,80.78
2018-06-18T22:58:17.731Z,81.50
2018-06-18T23:00:44.684Z,80.90
2018-06-18T23:03:11.734Z,80.82
2018-06-18T23:05:38.630Z,80.95
2018-06-18T23:08:05.623Z,80.44
2018-06-18T23:10:32.543Z,80.87
2018-06-18T23:12:59.459Z,80.83
2018-06-18T23:15:26.419Z,81.21
2018-06-18T23:17:53.326Z,80.65
2018-06-18T23:20:20.222Z,80.84
2018-06-18T23:22:47.231Z,80.97
2018-06-18T23:25:14.262Z,81.13
2018-06-18T23:27:41.162Z,81.91
2018-06-18T23:30:08.199Z,81.89
2018-06-18T23:32:35.095Z,81.74
2018-06-18T23:35:02.045Z,81.63
2018-06-18T23:37:28.955Z,81.89
2018-06-18T23:39:55.892Z,82.17
2018-06-18T23:42:23.071Z,81.75
2018-06-18T23:44:50.214Z,81.99
2018-06-18T23:47:17.147Z,82.44
2018-06-18T23:49:44.307Z,82.11
2018-06-18T23:52:11.243Z,81.82
2018-06-18T23:54:38.155Z,81.91
2018-06-18T23:57:05.068Z,82.19
2018-06-18T23:59:31.974Z,82.75
